sensor_id;sensor_type;location;lat;lon;timestamp;pressure;altitude;pressure_sealevel;temperature;humidity
10921;BME280;5513;50.580;8.818;2023-02-23T00:02:20;98704.41;;;8.63;100.00
10921;BME280;5513;50.580;8.818;2023-02-23T00:04:48;98707.56;;;8.68;100.00
10921;BME280;5513;50.580;8.818;2023-02-23T00:07:16;98703.25;;;8.67;100.00
10921;BME280;5513;50.580;8.818;2023-02-23T00:09:46;98701.19;;;8.72;100.00
10921;BME280;5513;50.580;8.818;2023-02-23T00:12:16;98703.16;;;8.68;100.00
10921;BME280;5513;50.580;8.818;2023-02-23T00:14:47;98699.34;;;8.86;100.00
10921;BME280;5513;50.580;8.818;2023-02-23T00:17:16;98690.78;;;8.83;100.00
10921;BME280;5513;50.580;8.818;2023-02-23T00:19:46;98702.75;;;8.88;100.00
10921;BME280;5513;50.580;8.818;2023-02-23T00:22:15;98700.69;;;8.79;100.00
10921;BME280;5513;50.580;8.818;2023-02-23T00:24:44;98694.56;;;8.79;100.00
10921;BME280;5513;50.580;8.818;2023-02-23T00:27:13;98692.78;;;8.79;100.00
10921;BME280;5513;50.580;8.818;2023-02-23T00:29:44;98704.44;;;8.89;100.00
10921;BME280;5513;50.580;8.818;2023-02-23T00:32:17;98700.69;;;8.79;100.00
10921;BME280;5513;50.580;8.818;2023-02-23T00:34:47;98702.38;;;8.80;100.00
10921;BME280;5513;50.580;8.818;2023-02-23T00:37:16;98689.06;;;8.82;100.00
10921;BME280;5513;50.580;8.818;2023-02-23T00:39:45;98696.44;;;8.77;100.00
10921;BME280;5513;50.580;8.818;2023-02-23T00:42:14;98688.88;;;8.85;100.00
10921;BME280;5513;50.580;8.818;2023-02-23T00:44:42;98690.38;;;8.89;100.00
10921;BME280;5513;50.580;8.818;2023-02-23T00:47:13;98700.69;;;8.79;100.00
10921;BME280;5513;50.580;8.818;2023-02-23T00:49:43;98701.72;;;8.77;100.00
10921;BME280;5513;50.580;8.818;2023-02-23T00:52:12;98699.00;;;8.78;100.00
10921;BME280;5513;50.580;8.818;2023-02-23T00:54:41;98702.06;;;8.85;100.00
10921;BME280;5513;50.580;8.818;2023-02-23T00:57:10;98701.03;;;8.87;100.00
10921;BME280;5513;50.580;8.818;2023-02-23T00:59:38;98703.59;;;8.89;100.00
10921;BME280;5513;50.580;8.818;2023-02-23T01:02:06;98702.75;;;8.88;100.00
10921;BME280;5513;50.580;8.818;2023-02-23T01:04:35;98692.19;;;8.88;100.00
10921;BME280;5513;50.580;8.818;2023-02-23T01:07:05;98691.97;;;8.92;100.00
10921;BME280;5513;50.580;8.818;2023-02-23T01:09:33;98694.03;;;8.86;100.00
10921;BME280;5513;50.580;8.818;2023-02-23T01:12:02;98696.91;;;8.83;100.00
10921;BME280;5513;50.580;8.818;2023-02-23T01:14:33;98697.22;;;8.65;100.00
10921;BME280;5513;50.580;8.818;2023-02-23T01:17:03;98705.72;;;8.70;100.00
10921;BME280;5513;50.580;8.818;2023-02-23T01:19:31;98700.75;;;8.78;100.00
10921;BME280;5513;50.580;8.818;2023-02-23T01:21:59;98690.91;;;8.94;100.00
10921;BME280;5513;50.580;8.818;2023-02-23T01:24:29;98690.91;;;8.94;100.00
10921;BME280;5513;50.580;8.818;2023-02-23T01:26:58;98695.06;;;8.98;100.00
10921;BME280;5513;50.580;8.818;2023-02-23T01:29:26;98696.34;;;9.05;100.00
10921;BME280;5513;50.580;8.818;2023-02-23T01:31:54;98692.56;;;9.09;100.00
10921;BME280;5513;50.580;8.818;2023-02-23T01:34:23;98701.13;;;8.86;100.00
10921;BME280;5513;50.580;8.818;2023-02-23T01:36:51;98694.63;;;8.77;100.00
10921;BME280;5513;50.580;8.818;2023-02-23T01:39:20;98686.97;;;8.87;100.00
10921;BME280;5513;50.580;8.818;2023-02-23T01:41:50;98690.72;;;8.97;100.00
10921;BME280;5513;50.580;8.818;2023-02-23T01:47:25;98692.75;;;9.06;100.00
10921;BME280;5513;50.580;8.818;2023-02-23T01:49:53;98695.34;;;8.94;100.00
10921;BME280;5513;50.580;8.818;2023-02-23T01:52:22;98688.97;;;8.83;100.00
10921;BME280;5513;50.580;8.818;2023-02-23T01:54:51;98700.69;;;8.79;100.00
10921;BME280;5513;50.580;8.818;2023-02-23T01:57:24;98692.25;;;8.87;100.00
10921;BME280;5513;50.580;8.818;2023-02-23T01:59:52;98690.81;;;8.96;100.00
10921;BME280;5513;50.580;8.818;2023-02-23T02:02:23;98699.59;;;8.96;100.00
10921;BME280;5513;50.580;8.818;2023-02-23T02:05:00;98688.63;;;9.02;100.00
10921;BME280;5513;50.580;8.818;2023-02-23T02:07:32;98694.00;;;9.01;100.00
10921;BME280;5513;50.580;8.818;2023-02-23T02:10:02;98694.31;;;8.96;100.00
10921;BME280;5513;50.580;8.818;2023-02-23T02:13:00;98690.19;;;8.92;100.00
10921;BME280;5513;50.580;8.818;2023-02-23T02:15:34;98694.22;;;8.98;100.00
10921;BME280;5513;50.580;8.818;2023-02-23T02:18:13;98693.34;;;8.97;100.00
10921;BME280;5513;50.580;8.818;2023-02-23T02:21:15;98693.44;;;8.96;100.00
10921;BME280;5513;50.580;8.818;2023-02-23T02:24:22;98691.06;;;9.05;100.00
10921;BME280;5513;50.580;8.818;2023-02-23T02:27:11;98684.53;;;9.11;100.00
10921;BME280;5513;50.580;8.818;2023-02-23T02:30:17;98681.66;;;9.01;100.00
10921;BME280;5513;50.580;8.818;2023-02-23T02:33:21;98686.97;;;9.14;100.00
10921;BME280;5513;50.580;8.818;2023-02-23T02:39:05;98680.00;;;9.13;100.00
10921;BME280;5513;50.580;8.818;2023-02-23T02:41:46;98674.59;;;9.14;100.00
10921;BME280;5513;50.580;8.818;2023-02-23T02:44:26;98663.19;;;9.14;100.00
10921;BME280;5513;50.580;8.818;2023-02-23T02:47:00;98667.25;;;9.20;100.00
10921;BME280;5513;50.580;8.818;2023-02-23T02:49:39;98666.78;;;9.13;100.00
10921;BME280;5513;50.580;8.818;2023-02-23T02:52:15;98671.00;;;9.15;100.00
10921;BME280;5513;50.580;8.818;2023-02-23T02:54:50;98670.00;;;9.18;100.00
10921;BME280;5513;50.580;8.818;2023-02-23T02:57:23;98659.50;;;9.16;100.00
10921;BME280;5513;50.580;8.818;2023-02-23T02:59:54;98664.25;;;9.11;100.00
10921;BME280;5513;50.580;8.818;2023-02-23T03:02:40;98663.50;;;9.09;100.00
10921;BME280;5513;50.580;8.818;2023-02-23T03:05:28;98664.97;;;9.01;100.00
10921;BME280;5513;50.580;8.818;2023-02-23T03:08:19;98669.19;;;9.03;100.00
10921;BME280;5513;50.580;8.818;2023-02-23T03:11:09;98659.91;;;9.10;100.00
10921;BME280;5513;50.580;8.818;2023-02-23T03:14:05;98657.56;;;9.06;100.00
10921;BME280;5513;50.580;8.818;2023-02-23T03:16:58;98653.56;;;9.00;100.00
10921;BME280;5513;50.580;8.818;2023-02-23T03:19:52;98660.41;;;9.03;100.00
10921;BME280;5513;50.580;8.818;2023-02-23T03:22:44;98666.31;;;8.94;100.00
10921;BME280;5513;50.580;8.818;2023-02-23T03:25:44;98665.91;;;9.00;100.00
10921;BME280;5513;50.580;8.818;2023-02-23T03:28:36;98671.94;;;9.02;100.00
10921;BME280;5513;50.580;8.818;2023-02-23T03:31:36;98676.38;;;9.01;100.00
10921;BME280;5513;50.580;8.818;2023-02-23T03:34:27;98676.16;;;9.04;100.00
10921;BME280;5513;50.580;8.818;2023-02-23T03:37:19;98677.66;;;9.08;100.00
10921;BME280;5513;50.580;8.818;2023-02-23T03:40:12;98672.19;;;9.11;100.00
10921;BME280;5513;50.580;8.818;2023-02-23T03:43:03;98678.81;;;9.04;100.00
10921;BME280;5513;50.580;8.818;2023-02-23T03:45:52;98672.81;;;9.15;100.00
10921;BME280;5513;50.580;8.818;2023-02-23T03:48:42;98678.53;;;9.22;100.00
10921;BME280;5513;50.580;8.818;2023-02-23T03:51:34;98678.66;;;9.20;100.00
10921;BME280;5513;50.580;8.818;2023-02-23T03:54:25;98674.75;;;9.26;100.00
10921;BME280;5513;50.580;8.818;2023-02-23T03:57:16;98673.72;;;9.28;100.00
10921;BME280;5513;50.580;8.818;2023-02-23T04:00:12;98680.56;;;9.18;100.00
10921;BME280;5513;50.580;8.818;2023-02-23T04:03:02;98677.50;;;9.24;100.00
10921;BME280;5513;50.580;8.818;2023-02-23T04:05:52;98683.63;;;9.25;100.00
10921;BME280;5513;50.580;8.818;2023-02-23T04:08:39;98676.13;;;9.31;100.00
10921;BME280;5513;50.580;8.818;2023-02-23T04:11:29;98680.78;;;9.28;100.00
10921;BME280;5513;50.580;8.818;2023-02-23T04:14:18;98684.16;;;9.17;100.00
10921;BME280;5513;50.580;8.818;2023-02-23T04:16:47;98680.69;;;9.29;100.00
10921;BME280;5513;50.580;8.818;2023-02-23T04:19:16;98685.53;;;9.23;100.00
10921;BME280;5513;50.580;8.818;2023-02-23T04:21:44;98692.81;;;9.19;100.00
10921;BME280;5513;50.580;8.818;2023-02-23T04:24:13;98687.19;;;8.84;100.00
10921;BME280;5513;50.580;8.818;2023-02-23T04:26:42;98697.53;;;8.87;100.00
10921;BME280;5513;50.580;8.818;2023-02-23T04:29:11;98697.16;;;8.93;100.00
10921;BME280;5513;50.580;8.818;2023-02-23T04:31:41;98693.75;;;8.91;100.00
10921;BME280;5513;50.580;8.818;2023-02-23T04:34:09;98697.13;;;9.07;100.00
10921;BME280;5513;50.580;8.818;2023-02-23T04:36:39;98701.44;;;9.08;100.00
10921;BME280;5513;50.580;8.818;2023-02-23T04:39:08;98702.41;;;9.07;100.00
10921;BME280;5513;50.580;8.818;2023-02-23T04:41:36;98701.63;;;9.05;100.00
10921;BME280;5513;50.580;8.818;2023-02-23T04:44:04;98700.63;;;8.94;100.00
10921;BME280;5513;50.580;8.818;2023-02-23T04:46:32;98701.47;;;8.94;100.00
10921;BME280;5513;50.580;8.818;2023-02-23T04:49:01;98699.91;;;8.92;100.00
10921;BME280;5513;50.580;8.818;2023-02-23T04:51:30;98702.63;;;8.90;100.00
10921;BME280;5513;50.580;8.818;2023-02-23T04:54:01;98702.91;;;8.85;100.00
10921;BME280;5513;50.580;8.818;2023-02-23T04:56:29;98707.25;;;8.86;100.00
10921;BME280;5513;50.580;8.818;2023-02-23T04:58:58;98707.34;;;8.85;100.00
10921;BME280;5513;50.580;8.818;2023-02-23T05:01:27;98705.03;;;8.80;100.00
10921;BME280;5513;50.580;8.818;2023-02-23T05:03:56;98702.66;;;8.76;100.00
10921;BME280;5513;50.580;8.818;2023-02-23T05:06:24;98710.31;;;8.80;100.00
10921;BME280;5513;50.580;8.818;2023-02-23T05:08:53;98712.84;;;8.82;100.00
10921;BME280;5513;50.580;8.818;2023-02-23T05:11:23;98716.97;;;8.86;100.00
10921;BME280;5513;50.580;8.818;2023-02-23T05:13:52;98727.09;;;8.79;100.00
10921;BME280;5513;50.580;8.818;2023-02-23T05:16:20;98718.72;;;8.73;100.00
10921;BME280;5513;50.580;8.818;2023-02-23T05:18:49;98717.66;;;8.75;100.00
10921;BME280;5513;50.580;8.818;2023-02-23T05:21:17;98715.44;;;8.69;100.00
10921;BME280;5513;50.580;8.818;2023-02-23T05:23:46;98716.34;;;8.68;100.00
10921;BME280;5513;50.580;8.818;2023-02-23T05:26:15;98721.16;;;8.76;100.00
10921;BME280;5513;50.580;8.818;2023-02-23T05:28:45;98717.91;;;8.85;100.00
10921;BME280;5513;50.580;8.818;2023-02-23T05:31:14;98727.09;;;8.79;100.00
10921;BME280;5513;50.580;8.818;2023-02-23T05:33:43;98720.47;;;8.86;100.00
10921;BME280;5513;50.580;8.818;2023-02-23T05:36:14;98719.50;;;8.87;100.00
10921;BME280;5513;50.580;8.818;2023-02-23T05:38:43;98723.03;;;8.88;100.00
10921;BME280;5513;50.580;8.818;2023-02-23T05:41:13;98719.72;;;8.84;100.00
10921;BME280;5513;50.580;8.818;2023-02-23T05:43:44;98724.53;;;8.78;100.00
10921;BME280;5513;50.580;8.818;2023-02-23T05:46:15;98728.63;;;8.69;100.00
10921;BME280;5513;50.580;8.818;2023-02-23T05:48:44;98728.03;;;8.78;100.00
10921;BME280;5513;50.580;8.818;2023-02-23T05:51:14;98731.59;;;8.77;100.00
10921;BME280;5513;50.580;8.818;2023-02-23T05:53:43;98729.28;;;8.73;100.00
10921;BME280;5513;50.580;8.818;2023-02-23T05:56:14;98735.97;;;8.78;100.00
10921;BME280;5513;50.580;8.818;2023-02-23T05:58:48;98738.03;;;8.73;100.00
10921;BME280;5513;50.580;8.818;2023-02-23T06:01:17;98732.97;;;8.70;100.00
10921;BME280;5513;50.580;8.818;2023-02-23T06:03:47;98738.69;;;8.77;100.00
10921;BME280;5513;50.580;8.818;2023-02-23T06:06:16;98734.13;;;8.93;100.00
10921;BME280;5513;50.580;8.818;2023-02-23T06:08:45;98729.06;;;8.90;100.00
10921;BME280;5513;50.580;8.818;2023-02-23T06:11:14;98738.31;;;8.83;100.00
10921;BME280;5513;50.580;8.818;2023-02-23T06:13:43;98738.00;;;8.87;100.00
10921;BME280;5513;50.580;8.818;2023-02-23T06:16:13;98738.59;;;8.78;100.00
10921;BME280;5513;50.580;8.818;2023-02-23T06:18:41;98733.03;;;8.83;100.00
10921;BME280;5513;50.580;8.818;2023-02-23T06:21:09;98745.56;;;8.79;100.00
10921;BME280;5513;50.580;8.818;2023-02-23T06:23:38;98745.75;;;8.76;100.00
10921;BME280;5513;50.580;8.818;2023-02-23T06:26:06;98749.81;;;8.82;100.00
10921;BME280;5513;50.580;8.818;2023-02-23T06:28:34;98753.50;;;8.79;100.00
10921;BME280;5513;50.580;8.818;2023-02-23T06:31:03;98749.91;;;8.80;100.00
10921;BME280;5513;50.580;8.818;2023-02-23T06:33:34;98762.28;;;8.80;100.00
10921;BME280;5513;50.580;8.818;2023-02-23T06:36:04;98757.00;;;8.80;100.00
10921;BME280;5513;50.580;8.818;2023-02-23T06:38:32;98754.09;;;8.70;100.00
10921;BME280;5513;50.580;8.818;2023-02-23T06:41:06;98765.44;;;8.85;100.00
10921;BME280;5513;50.580;8.818;2023-02-23T06:43:34;98763.75;;;8.84;100.00
10921;BME280;5513;50.580;8.818;2023-02-23T06:46:02;98770.00;;;8.83;100.00
10921;BME280;5513;50.580;8.818;2023-02-23T06:48:32;98770.06;;;8.96;100.00
10921;BME280;5513;50.580;8.818;2023-02-23T06:51:02;98770.56;;;8.88;100.00
10921;BME280;5513;50.580;8.818;2023-02-23T06:53:31;98768.41;;;8.80;100.00
10921;BME280;5513;50.580;8.818;2023-02-23T06:55:59;98772.06;;;8.92;100.00
10921;BME280;5513;50.580;8.818;2023-02-23T06:58:27;98777.72;;;8.86;100.00
10921;BME280;5513;50.580;8.818;2023-02-23T07:00:56;98776.31;;;8.80;100.00
10921;BME280;5513;50.580;8.818;2023-02-23T07:03:25;98784.34;;;8.79;100.00
10921;BME280;5513;50.580;8.818;2023-02-23T07:05:53;98778.47;;;8.88;100.00
10921;BME280;5513;50.580;8.818;2023-02-23T07:08:23;98788.94;;;8.89;100.00
10921;BME280;5513;50.580;8.818;2023-02-23T07:10:52;98783.34;;;8.94;100.00
10921;BME280;5513;50.580;8.818;2023-02-23T07:13:20;98785.72;;;8.99;100.00
10921;BME280;5513;50.580;8.818;2023-02-23T07:15:49;98791.06;;;8.97;100.00
10921;BME280;5513;50.580;8.818;2023-02-23T07:18:17;98797.28;;;9.10;100.00
10921;BME280;5513;50.580;8.818;2023-02-23T07:20:46;98792.50;;;9.03;100.00
10921;BME280;5513;50.580;8.818;2023-02-23T07:23:14;98792.41;;;9.04;100.00
10921;BME280;5513;50.580;8.818;2023-02-23T07:25:44;98795.59;;;9.09;100.00
10921;BME280;5513;50.580;8.818;2023-02-23T07:28:12;98798.41;;;9.06;100.00
10921;BME280;5513;50.580;8.818;2023-02-23T07:30:41;98801.41;;;9.29;100.00
10921;BME280;5513;50.580;8.818;2023-02-23T07:33:09;98800.19;;;9.20;100.00
10921;BME280;5513;50.580;8.818;2023-02-23T07:35:37;98797.56;;;9.20;100.00
10921;BME280;5513;50.580;8.818;2023-02-23T07:38:06;98793.97;;;9.21;100.00
10921;BME280;5513;50.580;8.818;2023-02-23T07:40:34;98797.75;;;9.17;100.00
10921;BME280;5513;50.580;8.818;2023-02-23T07:43:03;98806.69;;;9.29;100.00
10921;BME280;5513;50.580;8.818;2023-02-23T07:45:33;98804.16;;;9.27;100.00
10921;BME280;5513;50.580;8.818;2023-02-23T07:48:03;98807.63;;;9.28;100.00
10921;BME280;5513;50.580;8.818;2023-02-23T07:50:31;98813.31;;;9.22;100.00
10921;BME280;5513;50.580;8.818;2023-02-23T07:52:59;98807.72;;;9.26;100.00
10921;BME280;5513;50.580;8.818;2023-02-23T07:55:27;98813.66;;;9.30;100.00
10921;BME280;5513;50.580;8.818;2023-02-23T07:57:56;98807.63;;;9.28;100.00
10921;BME280;5513;50.580;8.818;2023-02-23T08:00:26;98807.13;;;9.35;100.00
10921;BME280;5513;50.580;8.818;2023-02-23T08:02:55;98806.19;;;9.36;100.00
10921;BME280;5513;50.580;8.818;2023-02-23T08:05:23;98812.97;;;9.40;100.00
10921;BME280;5513;50.580;8.818;2023-02-23T08:07:52;98815.81;;;9.37;100.00
10921;BME280;5513;50.580;8.818;2023-02-23T08:10:20;98813.13;;;9.52;100.00
10921;BME280;5513;50.580;8.818;2023-02-23T08:12:48;98814.28;;;9.48;100.00
10921;BME280;5513;50.580;8.818;2023-02-23T08:15:17;98812.91;;;9.55;100.00
10921;BME280;5513;50.580;8.818;2023-02-23T08:17:46;98807.78;;;9.66;100.00
10921;BME280;5513;50.580;8.818;2023-02-23T08:20:15;98813.47;;;9.60;100.00
10921;BME280;5513;50.580;8.818;2023-02-23T08:22:43;98814.31;;;9.60;100.00
10921;BME280;5513;50.580;8.818;2023-02-23T08:25:16;98815.63;;;9.67;100.00
10921;BME280;5513;50.580;8.818;2023-02-23T08:27:45;98816.69;;;9.78;100.00
10921;BME280;5513;50.580;8.818;2023-02-23T08:30:14;98815.97;;;9.75;100.00
10921;BME280;5513;50.580;8.818;2023-02-23T08:32:42;98827.16;;;9.66;100.00
10921;BME280;5513;50.580;8.818;2023-02-23T08:35:13;98825.16;;;9.83;100.00
10921;BME280;5513;50.580;8.818;2023-02-23T08:37:41;98826.84;;;9.84;100.00
10921;BME280;5513;50.580;8.818;2023-02-23T08:40:11;98820.53;;;9.86;100.00
10921;BME280;5513;50.580;8.818;2023-02-23T08:42:41;98828.66;;;9.83;100.00
10921;BME280;5513;50.580;8.818;2023-02-23T08:45:12;98827.19;;;9.79;100.00
10921;BME280;5513;50.580;8.818;2023-02-23T08:47:40;98834.16;;;9.80;100.00
10921;BME280;5513;50.580;8.818;2023-02-23T08:50:10;98835.63;;;9.84;100.00
10921;BME280;5513;50.580;8.818;2023-02-23T08:52:40;98833.44;;;9.91;100.00
10921;BME280;5513;50.580;8.818;2023-02-23T08:55:09;98839.69;;;9.90;100.00
10921;BME280;5513;50.580;8.818;2023-02-23T08:57:39;98828.38;;;9.88;100.00
10921;BME280;5513;50.580;8.818;2023-02-23T09:00:08;98832.84;;;10.00;100.00
10921;BME280;5513;50.580;8.818;2023-02-23T09:02:40;98841.16;;;9.94;100.00
10921;BME280;5513;50.580;8.818;2023-02-23T09:05:08;98833.56;;;10.02;100.00
10921;BME280;5513;50.580;8.818;2023-02-23T09:07:40;98832.50;;;9.92;100.00
10921;BME280;5513;50.580;8.818;2023-02-23T09:10:12;98838.53;;;9.94;100.00
10921;BME280;5513;50.580;8.818;2023-02-23T09:12:41;98840.88;;;9.98;100.00
10921;BME280;5513;50.580;8.818;2023-02-23T09:15:10;98840.88;;;9.98;100.00
10921;BME280;5513;50.580;8.818;2023-02-23T09:17:39;98835.69;;;9.97;100.00
10921;BME280;5513;50.580;8.818;2023-02-23T09:20:11;98842.34;;;9.90;100.00
10921;BME280;5513;50.580;8.818;2023-02-23T09:22:43;98839.47;;;9.93;100.00
10921;BME280;5513;50.580;8.818;2023-02-23T09:25:14;98845.72;;;9.92;100.00
10921;BME280;5513;50.580;8.818;2023-02-23T09:27:45;98851.06;;;10.04;100.00
10921;BME280;5513;50.580;8.818;2023-02-23T09:30:14;98847.56;;;10.04;100.00
10921;BME280;5513;50.580;8.818;2023-02-23T09:32:43;98853.63;;;10.19;100.00
10921;BME280;5513;50.580;8.818;2023-02-23T09:35:12;98841.56;;;10.15;100.00
10921;BME280;5513;50.580;8.818;2023-02-23T09:37:46;98848.22;;;10.20;100.00
10921;BME280;5513;50.580;8.818;2023-02-23T09:40:19;98849.38;;;10.16;100.00
10921;BME280;5513;50.580;8.818;2023-02-23T09:42:56;98851.72;;;10.21;100.00
10921;BME280;5513;50.580;8.818;2023-02-23T09:45:32;98845.69;;;10.19;100.00
10921;BME280;5513;50.580;8.818;2023-02-23T09:48:12;98855.31;;;10.20;100.00
10921;BME280;5513;50.580;8.818;2023-02-23T09:50:45;98852.41;;;10.24;100.00
10921;BME280;5513;50.580;8.818;2023-02-23T09:53:32;98854.53;;;10.45;100.00
10921;BME280;5513;50.580;8.818;2023-02-23T09:56:07;98865.06;;;9.80;100.00
10921;BME280;5513;50.580;8.818;2023-02-23T09:58:39;98865.41;;;9.61;100.00
10921;BME280;5513;50.580;8.818;2023-02-23T10:01:26;98876.34;;;9.96;100.00
10921;BME280;5513;50.580;8.818;2023-02-23T10:04:06;98865.38;;;10.15;100.00
10921;BME280;5513;50.580;8.818;2023-02-23T10:06:39;98874.69;;;9.81;100.00
10921;BME280;5513;50.580;8.818;2023-02-23T10:09:19;98880.31;;;9.62;100.00
10921;BME280;5513;50.580;8.818;2023-02-23T10:11:53;98877.03;;;9.58;100.00
10921;BME280;5513;50.580;8.818;2023-02-23T10:17:27;98882.81;;;9.51;100.00
10921;BME280;5513;50.580;8.818;2023-02-23T10:20:03;98888.00;;;9.79;100.00
10921;BME280;5513;50.580;8.818;2023-02-23T10:22:34;98887.19;;;9.91;100.00
10921;BME280;5513;50.580;8.818;2023-02-23T10:25:10;98891.06;;;10.13;100.00
10921;BME280;5513;50.580;8.818;2023-02-23T10:27:43;98889.47;;;10.24;100.00
10921;BME280;5513;50.580;8.818;2023-02-23T10:30:17;98889.47;;;10.24;100.00
10921;BME280;5513;50.580;8.818;2023-02-23T10:32:51;98893.19;;;10.35;100.00
10921;BME280;5513;50.580;8.818;2023-02-23T10:35:21;98891.16;;;10.51;100.00
10921;BME280;5513;50.580;8.818;2023-02-23T10:37:51;98891.28;;;10.49;100.00
10921;BME280;5513;50.580;8.818;2023-02-23T10:40:25;98885.34;;;10.58;100.00
10921;BME280;5513;50.580;8.818;2023-02-23T10:42:57;98887.59;;;10.65;100.00
10921;BME280;5513;50.580;8.818;2023-02-23T10:45:28;98881.56;;;11.01;100.00
10921;BME280;5513;50.580;8.818;2023-02-23T10:48:00;98888.44;;;11.03;100.00
10921;BME280;5513;50.580;8.818;2023-02-23T10:50:32;98874.13;;;11.06;100.00
10921;BME280;5513;50.580;8.818;2023-02-23T10:53:10;98875.69;;;11.21;100.00
10921;BME280;5513;50.580;8.818;2023-02-23T10:55:45;98869.38;;;11.35;100.00
10921;BME280;5513;50.580;8.818;2023-02-23T10:58:16;98862.22;;;11.48;100.00
10921;BME280;5513;50.580;8.818;2023-02-23T11:00:52;98858.06;;;11.57;100.00
10921;BME280;5513;50.580;8.818;2023-02-23T11:03:24;98864.94;;;11.35;100.00
10921;BME280;5513;50.580;8.818;2023-02-23T11:05:55;98867.50;;;11.24;100.00
10921;BME280;5513;50.580;8.818;2023-02-23T11:08:27;98863.78;;;11.27;100.00
10921;BME280;5513;50.580;8.818;2023-02-23T11:11:23;98867.34;;;10.76;100.00
10921;BME280;5513;50.580;8.818;2023-02-23T11:13:55;98865.13;;;10.96;100.00
10921;BME280;5513;50.580;8.818;2023-02-23T11:16:27;98858.28;;;11.17;100.00
10921;BME280;5513;50.580;8.818;2023-02-23T11:18:58;98854.34;;;10.73;100.00
10921;BME280;5513;50.580;8.818;2023-02-23T11:21:29;98854.34;;;10.73;100.00
10921;BME280;5513;50.580;8.818;2023-02-23T11:24:05;98855.25;;;11.10;100.00
10921;BME280;5513;50.580;8.818;2023-02-23T11:26:42;98842.03;;;11.34;100.00
10921;BME280;5513;50.580;8.818;2023-02-23T11:29:15;98838.53;;;11.34;100.00
10921;BME280;5513;50.580;8.818;2023-02-23T11:31:49;98836.97;;;11.31;100.00
10921;BME280;5513;50.580;8.818;2023-02-23T11:34:27;98843.28;;;11.41;100.00
10921;BME280;5513;50.580;8.818;2023-02-23T11:37:02;98838.00;;;11.29;100.00
10921;BME280;5513;50.580;8.818;2023-02-23T11:39:33;98824.44;;;11.57;100.00
10921;BME280;5513;50.580;8.818;2023-02-23T11:42:15;98826.75;;;12.10;100.00
10921;BME280;5513;50.580;8.818;2023-02-23T11:45:04;98808.47;;;12.40;100.00
10921;BME280;5513;50.580;8.818;2023-02-23T11:47:37;98804.41;;;12.01;100.00
10921;BME280;5513;50.580;8.818;2023-02-23T11:50:19;98803.38;;;11.80;100.00
10921;BME280;5513;50.580;8.818;2023-02-23T11:52:53;98794.22;;;11.95;100.00
10921;BME280;5513;50.580;8.818;2023-02-23T11:55:22;98786.44;;;12.16;100.00
10921;BME280;5513;50.580;8.818;2023-02-23T11:58:06;98784.94;;;11.89;100.00
10921;BME280;5513;50.580;8.818;2023-02-23T12:00:37;98784.47;;;11.95;100.00
10921;BME280;5513;50.580;8.818;2023-02-23T12:03:06;98781.66;;;12.21;100.00
10921;BME280;5513;50.580;8.818;2023-02-23T12:05:35;98775.81;;;12.16;100.00
10921;BME280;5513;50.580;8.818;2023-02-23T12:08:08;98769.25;;;12.55;100.00
10921;BME280;5513;50.580;8.818;2023-02-23T12:10:42;98767.91;;;12.72;100.00
10921;BME280;5513;50.580;8.818;2023-02-23T12:13:22;98771.66;;;12.36;100.00
10921;BME280;5513;50.580;8.818;2023-02-23T12:15:57;98769.53;;;12.06;100.00
10921;BME280;5513;50.580;8.818;2023-02-23T12:18:37;98770.91;;;12.45;100.00
10921;BME280;5513;50.580;8.818;2023-02-23T12:21:20;98777.44;;;12.52;100.00
10921;BME280;5513;50.580;8.818;2023-02-23T12:24:02;98765.56;;;12.00;100.00
10921;BME280;5513;50.580;8.818;2023-02-23T12:26:35;98772.97;;;12.19;100.00
10921;BME280;5513;50.580;8.818;2023-02-23T12:29:22;98779.38;;;12.50;100.00
10921;BME280;5513;50.580;8.818;2023-02-23T12:31:59;98774.91;;;12.39;100.00
10921;BME280;5513;50.580;8.818;2023-02-23T12:34:38;98771.75;;;12.34;100.00
10921;BME280;5513;50.580;8.818;2023-02-23T12:37:19;98766.81;;;12.41;100.00
10921;BME280;5513;50.580;8.818;2023-02-23T12:39:57;98770.78;;;12.24;100.00
10921;BME280;5513;50.580;8.818;2023-02-23T12:42:36;98775.22;;;12.12;100.00
10921;BME280;5513;50.580;8.818;2023-02-23T12:45:17;98776.66;;;12.05;100.00
10921;BME280;5513;50.580;8.818;2023-02-23T12:47:52;98771.88;;;11.86;100.00
10921;BME280;5513;50.580;8.818;2023-02-23T12:50:26;98773.47;;;11.89;100.00
10921;BME280;5513;50.580;8.818;2023-02-23T12:52:57;98765.97;;;11.83;100.00
10921;BME280;5513;50.580;8.818;2023-02-23T12:55:32;98765.66;;;11.74;100.00
10921;BME280;5513;50.580;8.818;2023-02-23T12:58:10;98768.69;;;11.70;100.00
10921;BME280;5513;50.580;8.818;2023-02-23T13:00:50;98767.56;;;11.61;100.00
10921;BME280;5513;50.580;8.818;2023-02-23T13:03:54;98764.78;;;11.63;100.00
10921;BME280;5513;50.580;8.818;2023-02-23T13:06:32;98767.19;;;11.66;100.00
10921;BME280;5513;50.580;8.818;2023-02-23T13:09:15;98764.06;;;11.61;100.00
10921;BME280;5513;50.580;8.818;2023-02-23T13:11:55;98770.22;;;11.61;100.00
10921;BME280;5513;50.580;8.818;2023-02-23T13:14:32;98762.13;;;11.63;100.00
10921;BME280;5513;50.580;8.818;2023-02-23T13:17:14;98763.22;;;11.60;100.00
10921;BME280;5513;50.580;8.818;2023-02-23T13:19:51;98759.38;;;11.64;100.00
10921;BME280;5513;50.580;8.818;2023-02-23T13:22:27;98759.09;;;11.56;100.00
10921;BME280;5513;50.580;8.818;2023-02-23T13:25:18;98763.09;;;11.62;100.00
10921;BME280;5513;50.580;8.818;2023-02-23T13:27:50;98755.59;;;11.56;100.00
10921;BME280;5513;50.580;8.818;2023-02-23T13:30:21;98758.59;;;11.51;100.00
10921;BME280;5513;50.580;8.818;2023-02-23T13:32:51;98759.28;;;11.42;100.00
10921;BME280;5513;50.580;8.818;2023-02-23T13:35:22;98753.56;;;11.35;100.00
10921;BME280;5513;50.580;8.818;2023-02-23T13:37:54;98764.16;;;11.35;100.00
10921;BME280;5513;50.580;8.818;2023-02-23T13:40:30;98755.50;;;11.33;100.00
10921;BME280;5513;50.580;8.818;2023-02-23T13:43:08;98760.91;;;11.32;100.00
10921;BME280;5513;50.580;8.818;2023-02-23T13:45:51;98761.41;;;11.37;100.00
10921;BME280;5513;50.580;8.818;2023-02-23T13:48:31;98761.53;;;11.35;100.00
10921;BME280;5513;50.580;8.818;2023-02-23T13:51:20;98755.50;;;11.33;100.00
10921;BME280;5513;50.580;8.818;2023-02-23T13:53:59;98764.69;;;11.40;100.00